createdAt,value
2023-04-04T00:01:11.595Z,0
2023-04-04T00:02:27.791Z,0
2023-04-04T00:03:43.981Z,0
2023-04-04T00:04:59.171Z,0
2023-04-04T00:06:15.368Z,0
2023-04-04T00:07:31.394Z,0
2023-04-04T00:08:47.734Z,0
2023-04-04T00:10:03.933Z,0
2023-04-04T00:11:20.124Z,0
2023-04-04T00:12:36.312Z,0
2023-04-04T00:13:52.323Z,0
2023-04-04T00:15:08.676Z,0
2023-04-04T00:16:24.697Z,0
2023-04-04T00:17:41.056Z,0
2023-04-04T00:18:57.233Z,0
2023-04-04T00:20:13.432Z,0
2023-04-04T00:21:28.474Z,0
2023-04-04T00:22:44.818Z,0
2023-04-04T00:24:01.000Z,0
2023-04-04T00:25:17.191Z,0
2023-04-04T00:26:33.211Z,0
2023-04-04T00:27:49.412Z,0
2023-04-04T00:29:05.602Z,0
2023-04-04T00:30:21.939Z,0
2023-04-04T00:31:37.965Z,0
2023-04-04T00:32:54.162Z,0
2023-04-04T00:34:10.506Z,0
2023-04-04T00:35:26.685Z,0
2023-04-04T00:36:42.709Z,0
2023-04-04T00:37:58.089Z,0
2023-04-04T00:39:14.283Z,0
2023-04-04T00:40:30.288Z,0
2023-04-04T00:41:46.649Z,0
2023-04-04T00:43:02.829Z,0
2023-04-04T00:44:19.018Z,0
2023-04-04T00:45:35.036Z,0
2023-04-04T00:46:51.393Z,0
2023-04-04T00:48:07.595Z,0
2023-04-04T00:49:23.772Z,0
2023-04-04T00:50:39.953Z,0
2023-04-04T00:51:55.976Z,0
2023-04-04T00:53:12.346Z,0
2023-04-04T00:54:27.544Z,0
2023-04-04T00:55:43.728Z,0
2023-04-04T00:56:59.911Z,0
2023-04-04T00:58:15.934Z,0
2023-04-04T00:59:32.111Z,0
2023-04-04T01:00:48.479Z,0
2023-04-04T01:02:04.497Z,0
2023-04-04T01:03:20.847Z,0
2023-04-04T01:04:37.036Z,0
2023-04-04T01:05:53.233Z,0
2023-04-04T01:07:09.242Z,0
2023-04-04T01:08:25.423Z,0
2023-04-04T01:09:41.782Z,0
2023-04-04T01:10:56.828Z,0
2023-04-04T01:12:13.172Z,0
2023-04-04T01:13:29.368Z,0
2023-04-04T01:14:45.562Z,0
2023-04-04T01:16:01.750Z,0
2023-04-04T01:17:17.930Z,0
2023-04-04T01:18:32.960Z,0
2023-04-04T01:19:49.337Z,0
2023-04-04T01:21:05.523Z,0
2023-04-04T01:22:21.536Z,0
2023-04-04T01:23:37.706Z,0
2023-04-04T01:24:53.891Z,0
2023-04-04T01:26:10.262Z,0
2023-04-04T01:27:26.462Z,0
2023-04-04T01:28:42.635Z,0
2023-04-04T01:29:58.657Z,0
2023-04-04T01:31:14.829Z,0
2023-04-04T01:32:31.025Z,0
2023-04-04T01:33:47.399Z,0
2023-04-04T01:35:02.424Z,0
2023-04-04T01:36:18.611Z,0
2023-04-04T01:37:34.789Z,0
2023-04-04T01:38:51.148Z,0
2023-04-04T01:40:07.349Z,0
2023-04-04T01:41:23.353Z,0
2023-04-04T01:42:39.533Z,0
2023-04-04T01:43:55.719Z,0
2023-04-04T01:45:11.917Z,0
2023-04-04T01:46:28.277Z,0
2023-04-04T01:47:44.297Z,0
2023-04-04T01:49:00.472Z,0
2023-04-04T01:50:16.848Z,0
2023-04-04T01:51:32.050Z,0
2023-04-04T01:52:48.056Z,0
2023-04-04T01:54:04.000Z,0
2023-04-04T01:55:20.630Z,0
2023-04-04T01:56:36.625Z,0
2023-04-04T01:57:52.990Z,0
2023-04-04T01:59:09.178Z,0
2023-04-04T02:00:25.170Z,0
2023-04-04T02:01:41.354Z,0
2023-04-04T02:02:57.544Z,0
2023-04-04T02:04:13.917Z,0
2023-04-04T02:05:30.116Z,0
2023-04-04T02:06:46.304Z,0
2023-04-04T02:08:01.317Z,0
2023-04-04T02:09:17.691Z,0
2023-04-04T02:10:33.882Z,0
2023-04-04T02:11:50.059Z,0
2023-04-04T02:13:06.055Z,0
2023-04-04T02:14:22.248Z,0
2023-04-04T02:15:38.432Z,0
2023-04-04T02:16:54.814Z,0
2023-04-04T02:18:10.992Z,0
2023-04-04T02:19:27.194Z,0
2023-04-04T02:20:43.378Z,0
2023-04-04T02:21:59.568Z,0
2023-04-04T02:23:15.762Z,0
2023-04-04T02:24:30.946Z,0
2023-04-04T02:25:47.133Z,0
2023-04-04T02:27:03.324Z,0
2023-04-04T02:28:19.512Z,0
2023-04-04T02:29:35.704Z,0
2023-04-04T02:30:51.707Z,0
2023-04-04T02:32:08.088Z,0
2023-04-04T02:33:24.275Z,0
2023-04-04T02:34:40.257Z,0
2023-04-04T02:35:56.461Z,0
2023-04-04T02:37:12.833Z,0
2023-04-04T02:38:28.816Z,0
2023-04-04T02:39:45.007Z,0
2023-04-04T02:41:00.209Z,0
2023-04-04T02:42:16.602Z,0
2023-04-04T02:43:32.785Z,0
2023-04-04T02:44:48.981Z,0
2023-04-04T02:46:04.971Z,0
2023-04-04T02:47:21.340Z,0
2023-04-04T02:48:37.544Z,0
2023-04-04T02:49:53.720Z,0
2023-04-04T02:51:09.717Z,0
2023-04-04T02:52:25.897Z,0
2023-04-04T02:53:42.295Z,0
2023-04-04T02:54:58.475Z,0
2023-04-04T02:56:14.669Z,0
2023-04-04T02:57:29.861Z,0
2023-04-04T02:58:46.048Z,0
2023-04-04T03:00:02.048Z,0
2023-04-04T03:01:18.226Z,0
2023-04-04T03:02:34.426Z,0
2023-04-04T03:03:50.799Z,0
2023-04-04T03:05:06.781Z,0
2023-04-04T03:06:23.170Z,0
2023-04-04T03:07:39.157Z,0
2023-04-04T03:08:55.556Z,0
2023-04-04T03:10:11.729Z,0
2023-04-04T03:11:27.917Z,0
2023-04-04T03:12:44.116Z,0
2023-04-04T03:13:59.123Z,0
2023-04-04T03:15:15.512Z,0
2023-04-04T03:16:31.500Z,0
2023-04-04T03:17:47.875Z,0
2023-04-04T03:19:04.059Z,0
2023-04-04T03:20:20.254Z,0
2023-04-04T03:21:36.236Z,0
2023-04-04T03:22:52.640Z,0
2023-04-04T03:24:08.813Z,0
2023-04-04T03:25:24.999Z,0
2023-04-04T03:26:41.194Z,0
2023-04-04T03:27:57.383Z,0
2023-04-04T03:29:13.368Z,0
2023-04-04T03:30:28.573Z,0
2023-04-04T03:31:44.950Z,0
2023-04-04T03:33:01.139Z,0
2023-04-04T03:34:17.342Z,0
2023-04-04T03:35:33.527Z,0
2023-04-04T03:36:49.700Z,0
2023-04-04T03:38:05.902Z,0
2023-04-04T03:39:22.081Z,0
2023-04-04T03:40:38.277Z,0
2023-04-04T03:41:54.247Z,0
2023-04-04T03:43:10.451Z,0
2023-04-04T03:44:26.844Z,0
2023-04-04T03:45:43.027Z,0
2023-04-04T03:46:58.220Z,0
2023-04-04T03:48:14.417Z,0
2023-04-04T03:49:30.598Z,0
2023-04-04T03:50:46.783Z,0
2023-04-04T03:52:02.986Z,0
2023-04-04T03:53:19.158Z,0
2023-04-04T03:54:35.142Z,0
2023-04-04T03:55:51.335Z,0
2023-04-04T03:57:07.721Z,0
2023-04-04T03:58:23.916Z,0
2023-04-04T03:59:40.104Z,0
2023-04-04T04:00:56.287Z,0
2023-04-04T04:02:12.277Z,0
2023-04-04T04:03:27.682Z,0
2023-04-04T04:04:43.877Z,0
2023-04-04T04:06:00.057Z,0
2023-04-04T04:07:16.023Z,0
2023-04-04T04:08:32.210Z,0
2023-04-04T04:09:48.626Z,0
2023-04-04T04:11:04.809Z,0
2023-04-04T04:12:20.998Z,4
2023-04-04T04:13:37.181Z,0
2023-04-04T04:14:53.362Z,4
2023-04-04T04:16:09.555Z,4
2023-04-04T04:17:25.531Z,4
2023-04-04T04:18:41.927Z,8
2023-04-04T04:19:57.132Z,8
2023-04-04T04:21:13.117Z,8
2023-04-04T04:22:29.502Z,8
2023-04-04T04:23:45.690Z,12
2023-04-04T04:25:01.672Z,16
2023-04-04T04:26:18.065Z,20
2023-04-04T04:27:34.266Z,20
2023-04-04T04:28:50.443Z,24
2023-04-04T04:30:06.627Z,28
2023-04-04T04:31:22.816Z,36
2023-04-04T04:32:38.787Z,40
2023-04-04T04:33:54.973Z,44
2023-04-04T04:35:11.389Z,52
2023-04-04T04:36:26.586Z,56
2023-04-04T04:37:42.781Z,64
2023-04-04T04:38:58.965Z,72
2023-04-04T04:40:15.155Z,76
2023-04-04T04:41:31.341Z,88
2023-04-04T04:42:47.518Z,92
2023-04-04T04:44:03.495Z,104
2023-04-04T04:45:19.911Z,112
2023-04-04T04:46:35.872Z,124
2023-04-04T04:47:52.054Z,132
2023-04-04T04:49:08.455Z,140
2023-04-04T04:50:24.657Z,152
2023-04-04T04:51:40.831Z,164
2023-04-04T04:52:56.039Z,172
2023-04-04T04:54:12.228Z,184
2023-04-04T04:55:28.192Z,196
2023-04-04T04:56:44.599Z,204
2023-04-04T04:58:00.797Z,216
2023-04-04T04:59:16.754Z,228
2023-04-04T05:00:33.163Z,240
2023-04-04T05:01:49.139Z,252
2023-04-04T05:03:05.539Z,264
2023-04-04T05:04:21.727Z,276
2023-04-04T05:05:37.922Z,284
2023-04-04T05:06:54.097Z,296
2023-04-04T05:08:10.297Z,308
2023-04-04T05:09:25.503Z,320
2023-04-04T05:10:41.466Z,328
2023-04-04T05:11:57.643Z,340
2023-04-04T05:13:14.050Z,348
2023-04-04T05:14:30.016Z,360
2023-04-04T05:15:46.439Z,372
2023-04-04T05:17:02.626Z,380
2023-04-04T05:18:18.589Z,388
2023-04-04T05:19:34.995Z,396
2023-04-04T05:20:51.195Z,404
2023-04-04T05:22:07.141Z,412
2023-04-04T05:23:23.563Z,424
2023-04-04T05:24:39.521Z,436
2023-04-04T05:25:54.716Z,448
2023-04-04T05:27:11.132Z,460
2023-04-04T05:28:27.335Z,476
2023-04-04T05:29:43.515Z,488
2023-04-04T05:30:59.709Z,500
2023-04-04T05:32:15.671Z,516
2023-04-04T05:33:30.866Z,528
2023-04-04T05:34:47.300Z,540
2023-04-04T05:36:03.236Z,556
2023-04-04T05:37:19.668Z,568
2023-04-04T05:38:35.613Z,580
2023-04-04T05:39:52.033Z,596
2023-04-04T05:41:08.227Z,608
2023-04-04T05:42:24.412Z,620
2023-04-04T05:43:40.609Z,632
2023-04-04T05:44:56.781Z,644
2023-04-04T05:46:12.740Z,656
2023-04-04T05:47:29.167Z,668
2023-04-04T05:48:45.109Z,680
2023-04-04T05:50:00.320Z,692
2023-04-04T05:51:16.516Z,700
2023-04-04T05:52:32.933Z,708
2023-04-04T05:53:48.879Z,720
2023-04-04T05:55:05.301Z,728
2023-04-04T05:56:21.497Z,736
2023-04-04T05:57:37.675Z,744
2023-04-04T05:58:53.858Z,752
2023-04-04T06:00:10.052Z,760
2023-04-04T06:01:26.016Z,768
2023-04-04T06:02:42.185Z,780
2023-04-04T06:03:58.387Z,788
2023-04-04T06:05:14.810Z,796
2023-04-04T06:06:29.763Z,808
2023-04-04T06:07:46.195Z,828
2023-04-04T06:09:02.137Z,844
2023-04-04T06:10:18.560Z,856
2023-04-04T06:11:34.531Z,872
2023-04-04T06:12:50.941Z,884
2023-04-04T06:14:07.135Z,892
2023-04-04T06:15:23.081Z,900
2023-04-04T06:16:39.517Z,908
2023-04-04T06:17:55.465Z,916
2023-04-04T06:19:11.648Z,928
2023-04-04T06:20:28.064Z,932
2023-04-04T06:21:44.258Z,940
2023-04-04T06:22:59.000Z,948
2023-04-04T06:24:15.644Z,952
2023-04-04T06:25:31.826Z,960
2023-04-04T06:26:47.774Z,964
2023-04-04T06:28:03.972Z,972
2023-04-04T06:29:20.401Z,976
2023-04-04T06:30:36.577Z,980
2023-04-04T06:31:52.765Z,980
2023-04-04T06:33:08.714Z,988
2023-04-04T06:34:24.908Z,988
2023-04-04T06:35:41.327Z,992
2023-04-04T06:36:57.290Z,996
2023-04-04T06:38:13.707Z,1000
2023-04-04T06:39:28.672Z,1004
2023-04-04T06:40:44.852Z,1008
2023-04-04T06:42:01.291Z,1012
2023-04-04T06:43:17.484Z,1016
2023-04-04T06:44:33.674Z,1020
2023-04-04T06:45:49.847Z,1028
2023-04-04T06:47:06.041Z,1032
2023-04-04T06:48:21.982Z,1032
2023-04-04T06:49:38.408Z,1036
2023-04-04T06:50:54.596Z,1036
2023-04-04T06:52:10.800Z,1040
2023-04-04T06:53:26.725Z,1044
2023-04-04T06:54:43.174Z,1044
2023-04-04T06:55:58.128Z,1052
2023-04-04T06:57:14.556Z,1052
2023-04-04T06:58:30.738Z,1056
2023-04-04T06:59:46.932Z,1056
2023-04-04T07:01:03.124Z,1060
2023-04-04T07:02:19.306Z,1060
2023-04-04T07:03:35.243Z,1056
2023-04-04T07:04:51.425Z,1056
2023-04-04T07:06:07.619Z,1060
2023-04-04T07:07:24.054Z,1060
2023-04-04T07:08:40.239Z,1060
2023-04-04T07:09:56.427Z,1060
2023-04-04T07:11:12.628Z,1064
2023-04-04T07:12:27.561Z,1068
2023-04-04T07:13:43.761Z,1068
2023-04-04T07:14:59.955Z,1068
2023-04-04T07:16:16.124Z,1076
2023-04-04T07:17:32.562Z,1076
2023-04-04T07:18:48.519Z,1080
2023-04-04T07:20:04.687Z,1092
2023-04-04T07:21:21.127Z,1096
2023-04-04T07:22:37.316Z,1092
2023-04-04T07:23:53.512Z,1084
2023-04-04T07:25:09.441Z,1032
2023-04-04T07:26:25.630Z,1092
2023-04-04T07:27:41.814Z,1092
2023-04-04T07:28:57.281Z,1104
2023-04-04T07:30:13.456Z,1092
2023-04-04T07:31:29.402Z,1096
2023-04-04T07:32:45.834Z,1084
2023-04-04T07:34:02.029Z,1112
2023-04-04T07:35:17.956Z,1116
2023-04-04T07:36:34.406Z,1116
2023-04-04T07:37:50.330Z,1120
2023-04-04T07:39:06.524Z,1108
2023-04-04T07:40:22.706Z,1116
2023-04-04T07:41:39.151Z,1116
2023-04-04T07:42:55.084Z,1112
2023-04-04T07:44:11.258Z,1148
2023-04-04T07:45:26.737Z,1156
2023-04-04T07:46:42.917Z,1128
2023-04-04T07:47:59.096Z,1120
2023-04-04T07:49:15.296Z,1116
2023-04-04T07:50:31.212Z,1116
2023-04-04T07:51:47.657Z,1120
2023-04-04T07:53:03.595Z,1120
2023-04-04T07:54:20.032Z,1192
2023-04-04T07:55:36.227Z,1244
2023-04-04T07:56:52.166Z,1308
2023-04-04T07:58:08.345Z,1316
2023-04-04T07:59:24.800Z,1204
2023-04-04T08:00:40.978Z,1140
2023-04-04T08:01:56.173Z,1136
2023-04-04T08:03:12.108Z,1244
2023-04-04T08:04:28.562Z,1416
2023-04-04T08:05:44.471Z,1212
2023-04-04T08:07:00.658Z,1152
2023-04-04T08:08:17.124Z,1116
2023-04-04T08:09:33.304Z,1092
2023-04-04T08:10:49.237Z,1000
2023-04-04T08:12:05.417Z,1104
2023-04-04T08:13:21.599Z,1116
2023-04-04T08:14:38.048Z,1124
2023-04-04T08:15:54.233Z,1136
2023-04-04T08:17:10.427Z,1124
2023-04-04T08:18:25.375Z,1124
2023-04-04T08:19:41.819Z,1128
2023-04-04T08:20:57.752Z,1124
2023-04-04T08:22:13.920Z,1120
2023-04-04T08:23:30.118Z,1132
2023-04-04T08:24:46.311Z,1128
2023-04-04T08:26:02.755Z,1124
2023-04-04T08:27:18.951Z,1124
2023-04-04T08:28:34.874Z,1136
2023-04-04T08:29:51.310Z,1148
2023-04-04T08:31:07.497Z,1152
2023-04-04T08:32:23.420Z,1184
2023-04-04T08:33:39.615Z,1156
2023-04-04T08:34:54.809Z,1196
2023-04-04T08:36:11.276Z,1192
2023-04-04T08:37:27.450Z,1216
2023-04-04T08:38:43.642Z,1216
2023-04-04T08:39:59.830Z,1164
2023-04-04T08:41:16.026Z,1164
2023-04-04T08:42:31.931Z,1184
2023-04-04T08:43:48.130Z,1168
2023-04-04T08:45:04.579Z,1176
2023-04-04T08:46:20.496Z,1220
2023-04-04T08:47:36.684Z,1220
2023-04-04T08:48:52.879Z,1200
2023-04-04T08:50:09.054Z,1188
2023-04-04T08:51:25.246Z,1180
2023-04-04T08:52:40.461Z,1184
2023-04-04T08:53:56.920Z,1236
2023-04-04T08:55:12.821Z,1292
2023-04-04T08:56:29.278Z,1368
2023-04-04T08:57:45.469Z,1392
2023-04-04T08:59:01.379Z,1544
2023-04-04T09:00:17.581Z,1884
2023-04-04T09:02:49.945Z,1780
2023-04-04T09:04:06.139Z,1728
2023-04-04T09:05:22.333Z,1596
2023-04-04T09:06:38.504Z,1576
2023-04-04T09:07:54.700Z,2016
2023-04-04T09:09:10.168Z,1988
2023-04-04T09:10:26.370Z,2080
2023-04-04T09:11:42.552Z,2168
2023-04-04T09:12:58.474Z,2212
2023-04-04T09:14:14.654Z,2396
2023-04-04T09:15:31.126Z,2908
2023-04-04T09:16:47.042Z,2424
2023-04-04T09:18:03.492Z,2036
2023-04-04T09:19:19.692Z,1784
2023-04-04T09:20:35.590Z,2040
2023-04-04T09:21:51.788Z,2264
2023-04-04T09:23:08.243Z,2484
2023-04-04T09:24:24.449Z,3032
2023-04-04T09:25:39.365Z,3076
2023-04-04T09:26:55.548Z,2576
2023-04-04T09:28:12.032Z,2428
2023-04-04T09:29:27.938Z,2396
2023-04-04T09:30:44.402Z,2332
2023-04-04T09:32:00.312Z,2212
2023-04-04T09:33:16.506Z,2092
2023-04-04T09:34:32.699Z,2176
2023-04-04T09:35:49.156Z,2580
2023-04-04T09:37:05.058Z,2820
2023-04-04T09:38:21.261Z,2404
2023-04-04T09:39:37.716Z,1768
2023-04-04T09:40:53.908Z,1812
2023-04-04T09:42:09.109Z,1808
2023-04-04T09:43:25.029Z,1696
2023-04-04T09:44:41.214Z,1952
2023-04-04T09:45:57.397Z,2052
2023-04-04T09:47:13.597Z,2100
2023-04-04T09:48:29.077Z,2384
2023-04-04T09:49:45.280Z,2052
2023-04-04T09:51:01.172Z,2632
2023-04-04T09:52:17.359Z,3048
2023-04-04T09:53:33.850Z,3016
2023-04-04T09:54:49.753Z,2932
2023-04-04T09:56:06.213Z,3520
2023-04-04T09:57:22.119Z,3540
2023-04-04T09:58:38.317Z,3384
2023-04-04T09:59:54.503Z,3128
2023-04-04T10:01:10.976Z,3064
2023-04-04T10:02:26.877Z,3272
2023-04-04T10:03:43.056Z,3368
2023-04-04T10:04:58.564Z,3028
2023-04-04T10:06:14.737Z,3424
2023-04-04T10:07:30.642Z,2980
2023-04-04T10:08:46.838Z,3228
2023-04-04T10:10:03.321Z,4896
2023-04-04T10:11:19.204Z,5324
2023-04-04T10:12:35.685Z,5320
2023-04-04T10:13:51.877Z,4480
2023-04-04T10:15:07.780Z,4244
2023-04-04T10:16:23.965Z,4720
2023-04-04T10:17:40.165Z,5044
2023-04-04T10:18:56.641Z,4700
2023-04-04T10:20:12.820Z,4044
2023-04-04T10:21:28.034Z,3348
2023-04-04T10:22:43.930Z,2768
2023-04-04T10:24:00.399Z,2436
2023-04-04T10:25:16.305Z,2428
2023-04-04T10:26:32.780Z,2396
2023-04-04T10:27:48.967Z,2084
2023-04-04T10:29:04.866Z,2192
2023-04-04T10:30:21.068Z,2440
2023-04-04T10:31:37.547Z,2872
2023-04-04T10:32:53.434Z,3100
2023-04-04T10:34:09.625Z,3140
2023-04-04T10:35:25.805Z,3412
2023-04-04T10:36:42.296Z,3800
2023-04-04T10:37:57.239Z,4232
2023-04-04T10:39:13.396Z,4704
2023-04-04T10:40:29.896Z,4880
2023-04-04T10:41:45.762Z,5020
2023-04-04T10:43:01.962Z,5640
2023-04-04T10:44:18.444Z,5816
2023-04-04T10:45:34.333Z,5416
2023-04-04T10:46:50.830Z,4700
2023-04-04T10:48:07.011Z,4292
2023-04-04T10:49:22.906Z,3932
2023-04-04T10:50:39.389Z,5320
2023-04-04T10:51:55.272Z,3832
2023-04-04T10:53:11.475Z,3228
2023-04-04T10:54:26.671Z,3780
2023-04-04T10:55:43.161Z,4952
2023-04-04T10:56:59.343Z,3628
2023-04-04T10:58:15.542Z,3832
2023-04-04T10:59:31.717Z,3648
2023-04-04T11:00:47.625Z,3308
2023-04-04T11:02:04.111Z,3548
2023-04-04T11:03:19.991Z,3552
2023-04-04T11:04:36.174Z,3512
2023-04-04T11:05:52.375Z,5132
2023-04-04T11:07:08.564Z,4944
2023-04-04T11:08:24.759Z,4692
2023-04-04T11:09:41.238Z,4620
2023-04-04T11:10:56.447Z,4552
2023-04-04T11:12:12.341Z,4616
2023-04-04T11:13:28.833Z,5076
2023-04-04T11:14:44.716Z,5684
2023-04-04T11:16:00.905Z,6000
2023-04-04T11:17:17.390Z,6520
2023-04-04T11:18:33.577Z,7000
2023-04-04T11:19:49.477Z,5696
2023-04-04T11:21:05.665Z,8136
2023-04-04T11:22:22.148Z,8856
2023-04-04T11:23:38.341Z,8972
2023-04-04T11:24:54.530Z,8700
2023-04-04T11:26:10.723Z,8472
2023-04-04T11:27:25.917Z,8548
2023-04-04T11:28:41.805Z,7836
2023-04-04T11:29:58.300Z,6900
2023-04-04T11:31:14.193Z,8064
2023-04-04T11:32:30.374Z,4744
2023-04-04T11:33:46.867Z,5092
2023-04-04T11:35:02.755Z,6780
2023-04-04T11:36:19.236Z,4328
2023-04-04T11:37:35.426Z,9076
2023-04-04T11:38:51.322Z,8888
2023-04-04T11:40:07.508Z,7528
2023-04-04T11:41:23.995Z,12224
2023-04-04T11:42:40.187Z,8728
2023-04-04T11:43:55.393Z,11532
2023-04-04T11:45:11.286Z,9800
2023-04-04T11:46:27.471Z,15076
2023-04-04T11:47:43.644Z,7532
2023-04-04T11:49:00.152Z,36256
2023-04-04T11:50:16.040Z,16304
2023-04-04T11:51:32.220Z,5924
2023-04-04T11:52:48.399Z,5312
2023-04-04T11:54:04.593Z,5340
2023-04-04T11:55:21.098Z,5600
2023-04-04T11:56:37.277Z,5896
2023-04-04T11:57:53.165Z,6080
2023-04-04T11:59:09.658Z,5832
2023-04-04T12:00:24.872Z,5764
2023-04-04T12:01:40.758Z,5908
2023-04-04T12:02:57.247Z,5916
2023-04-04T12:04:13.444Z,7028
2023-04-04T12:05:29.625Z,8648
2023-04-04T12:06:45.821Z,55936
2023-04-04T12:08:01.700Z,67584
2023-04-04T12:09:17.886Z,67584
2023-04-04T12:10:34.066Z,42144
2023-04-04T12:11:50.580Z,56768
2023-04-04T12:13:06.441Z,64352
2023-04-04T12:14:22.632Z,71200
2023-04-04T12:15:38.829Z,70880
2023-04-04T12:16:54.344Z,19128
2023-04-04T12:18:10.524Z,12284
2023-04-04T12:19:26.733Z,60352
2023-04-04T12:20:42.911Z,70688
2023-04-04T12:21:59.105Z,68544
2023-04-04T12:23:14.968Z,67616
2023-04-04T12:24:31.166Z,64672
2023-04-04T12:25:47.668Z,62112
2023-04-04T12:27:03.861Z,51072
2023-04-04T12:28:20.047Z,14680
2023-04-04T12:29:36.236Z,20192
2023-04-04T12:30:52.096Z,13612
2023-04-04T12:32:08.298Z,15148
2023-04-04T12:33:23.828Z,70688
2023-04-04T12:34:40.012Z,65600
2023-04-04T12:35:55.879Z,9596
2023-04-04T12:37:12.393Z,12976
2023-04-04T12:38:28.583Z,6712
2023-04-04T12:39:44.449Z,5424
2023-04-04T12:41:00.637Z,4624
2023-04-04T12:42:16.816Z,4152
2023-04-04T12:43:33.021Z,3720
2023-04-04T12:44:49.212Z,3316
2023-04-04T12:46:05.390Z,3156
2023-04-04T12:47:21.588Z,3116
2023-04-04T12:48:37.771Z,3104
2023-04-04T12:49:52.977Z,3344
2023-04-04T12:51:09.174Z,4164
2023-04-04T12:52:25.675Z,4956
2023-04-04T12:53:41.536Z,5676
2023-04-04T12:54:57.732Z,23648
2023-04-04T12:56:13.917Z,28352
2023-04-04T12:57:30.429Z,6740
2023-04-04T12:58:46.296Z,6476
2023-04-04T13:00:02.483Z,7648
2023-04-04T13:01:18.669Z,32512
2023-04-04T13:02:34.861Z,13168
2023-04-04T13:03:51.056Z,7984
2023-04-04T13:05:07.569Z,8268
2023-04-04T13:06:22.776Z,11648
2023-04-04T13:07:38.638Z,33408
2023-04-04T13:08:55.153Z,9492
2023-04-04T13:10:11.007Z,5788
2023-04-04T13:11:27.206Z,5920
2023-04-04T13:12:43.717Z,7280
2023-04-04T13:13:59.575Z,9304
2023-04-04T13:15:16.092Z,23072
2023-04-04T13:16:32.289Z,39488
2023-04-04T13:17:48.138Z,28864
2023-04-04T13:19:04.660Z,12836
2023-04-04T13:20:20.848Z,9372
2023-04-04T13:21:37.035Z,5160
2023-04-04T13:22:51.916Z,4108
2023-04-04T13:24:08.444Z,4008
2023-04-04T13:25:24.288Z,4480
2023-04-04T13:26:40.479Z,5808
2023-04-04T13:27:57.005Z,5688
2023-04-04T13:29:12.856Z,29440
2023-04-04T13:30:29.049Z,4720
2023-04-04T13:31:45.574Z,4356
2023-04-04T13:33:01.761Z,4484
2023-04-04T13:34:17.950Z,23040
2023-04-04T13:35:34.144Z,33504
2023-04-04T13:36:49.997Z,5112
2023-04-04T13:38:06.519Z,5292
2023-04-04T13:39:21.383Z,5916
2023-04-04T13:40:37.583Z,7080
2023-04-04T13:41:53.773Z,52000
2023-04-04T13:43:09.950Z,48928
2023-04-04T13:44:26.150Z,47424
2023-04-04T13:45:42.670Z,48096
2023-04-04T13:46:58.527Z,47392
2023-04-04T13:48:14.703Z,49216
2023-04-04T13:49:30.909Z,35872
2023-04-04T13:50:47.429Z,5060
2023-04-04T13:52:03.277Z,3912
2023-04-04T13:53:19.805Z,3132
2023-04-04T13:54:35.657Z,2724
2023-04-04T13:55:50.862Z,2660
2023-04-04T13:57:07.044Z,2636
2023-04-04T13:58:23.578Z,2456
2023-04-04T13:59:39.425Z,2376
2023-04-04T14:00:55.946Z,2312
2023-04-04T14:02:11.798Z,2568
2023-04-04T14:03:27.023Z,3672
2023-04-04T14:04:43.209Z,19264
2023-04-04T14:05:59.738Z,30176
2023-04-04T14:07:15.921Z,32192
2023-04-04T14:08:32.109Z,32896
2023-04-04T14:09:48.303Z,5464
2023-04-04T14:11:04.484Z,5084
2023-04-04T14:12:20.340Z,5156
2023-04-04T14:13:36.854Z,5172
2023-04-04T14:14:53.056Z,4900
2023-04-04T14:16:09.243Z,10964
2023-04-04T14:17:25.088Z,6760
2023-04-04T14:18:41.274Z,5892
2023-04-04T14:19:56.823Z,5452
2023-04-04T14:21:13.000Z,5304
2023-04-04T14:22:29.211Z,5456
2023-04-04T14:23:45.396Z,5680
2023-04-04T14:25:01.235Z,5572
2023-04-04T14:26:17.418Z,5444
2023-04-04T14:27:33.955Z,5452
2023-04-04T14:28:50.151Z,5316
2023-04-04T14:30:05.993Z,5372
2023-04-04T14:31:22.526Z,5828
2023-04-04T14:32:38.711Z,6424
2023-04-04T14:33:54.562Z,6720
2023-04-04T14:35:11.093Z,6060
2023-04-04T14:36:26.302Z,5496
2023-04-04T14:37:42.481Z,5532
2023-04-04T14:38:58.674Z,5444
2023-04-04T14:40:14.873Z,5032
2023-04-04T14:41:30.700Z,4492
2023-04-04T14:42:46.892Z,3952
2023-04-04T14:44:03.442Z,3636
2023-04-04T14:45:19.618Z,3520
2023-04-04T14:46:35.807Z,3520
2023-04-04T14:47:52.007Z,3568
2023-04-04T14:49:08.198Z,3528
2023-04-04T14:50:24.372Z,3504
2023-04-04T14:51:40.563Z,3612
2023-04-04T14:52:55.680Z,3708
2023-04-04T14:54:11.857Z,3712
2023-04-04T14:55:28.058Z,3556
2023-04-04T14:56:44.252Z,3508
2023-04-04T14:58:00.534Z,3536
2023-04-04T14:59:16.724Z,3568
2023-04-04T15:00:32.913Z,3592
2023-04-04T15:01:49.098Z,3472
2023-04-04T15:03:05.182Z,3292
2023-04-04T15:04:21.368Z,3128
2023-04-04T15:05:37.558Z,2924
2023-04-04T15:06:53.751Z,2804
2023-04-04T15:08:09.943Z,2700
2023-04-04T15:09:25.151Z,2540
2023-04-04T15:10:41.443Z,2508
2023-04-04T15:11:57.622Z,2536
2023-04-04T15:13:13.817Z,2544
2023-04-04T15:14:30.004Z,2492
2023-04-04T15:15:46.093Z,2432
2023-04-04T15:17:02.388Z,2400
2023-04-04T15:18:18.471Z,2324
2023-04-04T15:19:34.660Z,2284
2023-04-04T15:20:50.848Z,2272
2023-04-04T15:22:07.133Z,2328
2023-04-04T15:23:23.227Z,2432
2023-04-04T15:24:39.410Z,2516
2023-04-04T15:25:54.710Z,2664
2023-04-04T15:27:10.903Z,2804
2023-04-04T15:28:26.987Z,2784
2023-04-04T15:29:43.281Z,2620
2023-04-04T15:30:59.381Z,2604
2023-04-04T15:32:15.558Z,2712
2023-04-04T15:33:31.851Z,2772
2023-04-04T15:34:47.936Z,2812
2023-04-04T15:36:04.230Z,2756
2023-04-04T15:37:20.413Z,2700
2023-04-04T15:38:36.606Z,2600
2023-04-04T15:39:52.806Z,2472
2023-04-04T15:41:08.873Z,2360
2023-04-04T15:42:24.083Z,2200
2023-04-04T15:43:40.376Z,1968
2023-04-04T15:44:56.572Z,1780
2023-04-04T15:46:12.650Z,1664
2023-04-04T15:47:28.834Z,1584
2023-04-04T15:48:45.025Z,1640
2023-04-04T15:50:01.216Z,1796
2023-04-04T15:51:17.522Z,1924
2023-04-04T15:52:33.699Z,1868
2023-04-04T15:53:49.787Z,1788
2023-04-04T15:55:06.089Z,1720
2023-04-04T15:56:22.164Z,1664
2023-04-04T15:57:38.344Z,1644
2023-04-04T15:58:53.549Z,1692
2023-04-04T16:00:09.858Z,1748
2023-04-04T16:01:26.036Z,1736
2023-04-04T16:02:42.225Z,1720
2023-04-04T16:03:58.413Z,1676
2023-04-04T16:05:14.493Z,1708
2023-04-04T16:06:30.684Z,1732
2023-04-04T16:07:46.993Z,1800
2023-04-04T16:09:03.061Z,1856
2023-04-04T16:10:19.249Z,1884
2023-04-04T16:11:35.447Z,1868
2023-04-04T16:12:51.626Z,1864
2023-04-04T16:14:07.942Z,1812
2023-04-04T16:15:23.140Z,1700
2023-04-04T16:16:39.330Z,1536
2023-04-04T16:17:55.414Z,1380
2023-04-04T16:19:11.595Z,1284
2023-04-04T16:20:27.891Z,1136
2023-04-04T16:21:44.093Z,1040
2023-04-04T16:23:00.273Z,1024
2023-04-04T16:24:16.345Z,984
2023-04-04T16:25:32.644Z,920
2023-04-04T16:26:48.728Z,880
2023-04-04T16:28:04.907Z,872
2023-04-04T16:29:21.224Z,848
2023-04-04T16:30:37.415Z,820
2023-04-04T16:31:52.492Z,808
2023-04-04T16:33:08.805Z,872
2023-04-04T16:34:24.877Z,920
2023-04-04T16:35:41.056Z,968
2023-04-04T16:36:57.243Z,1012
2023-04-04T16:38:13.554Z,944
2023-04-04T16:39:29.630Z,860
2023-04-04T16:40:45.941Z,760
2023-04-04T16:42:01.996Z,720
2023-04-04T16:43:18.187Z,680
2023-04-04T16:44:34.384Z,632
2023-04-04T16:45:50.691Z,592
2023-04-04T16:47:06.764Z,584
2023-04-04T16:48:21.958Z,584
2023-04-04T16:49:38.161Z,588
2023-04-04T16:50:54.346Z,600
2023-04-04T16:52:10.652Z,636
2023-04-04T16:53:26.835Z,656
2023-04-04T16:54:43.021Z,624
2023-04-04T16:55:59.102Z,584
2023-04-04T16:57:15.292Z,520
2023-04-04T16:58:31.470Z,456
2023-04-04T16:59:47.786Z,396
2023-04-04T17:01:03.984Z,336
2023-04-04T17:02:20.033Z,284
2023-04-04T17:03:36.363Z,236
2023-04-04T17:04:51.558Z,208
2023-04-04T17:06:07.631Z,184
2023-04-04T17:07:23.945Z,152
2023-04-04T17:08:40.117Z,128
2023-04-04T17:09:56.194Z,112
2023-04-04T17:11:12.514Z,112
2023-04-04T17:12:28.688Z,112
2023-04-04T17:13:44.759Z,116
2023-04-04T17:15:00.939Z,120
2023-04-04T17:16:17.142Z,128
2023-04-04T17:17:33.330Z,132
2023-04-04T17:18:49.647Z,148
2023-04-04T17:20:05.828Z,164
2023-04-04T17:21:20.899Z,168
2023-04-04T17:22:37.212Z,172
2023-04-04T17:23:53.417Z,164
2023-04-04T17:25:09.479Z,148
2023-04-04T17:26:25.656Z,132